Teneriffa, Canary Islands

29. toukokuuta 2015 klo 15:02 (WEST) (GMT +0100)
Plaza Victor Zurita Soler | | Change Station
CLOSE
Current Station
Omat sääasemat
Location: San Cristóbal De La Laguna, CANARIAS
Korkeus: 1795 ft
Lähimmät sääasemat

Kork 1795 ft 28.48 °N, 16.31 °W | Updated 1 second ago

Partly Cloudy
Puolipilvistä
70.9 °F
Tuntuu kuin 75 °F
N
6.7
Tuuli Suunnaltaan vaihteleva Tuuli ilmansuunnasta Etelän ja kaakon välinen
Gusts 7.4 mph

Tänään
Korkea -- | Matala -- °F
--% Sateen mahd.
Eilen
Korkea -- | Matala -- °F
Precip. -- tuumaa
7:08 AM 8:56 PM
Kasvava kupera kuu, 84% visible
Ilmanpaine 30.15 tuumaa
Näkyvyys 6.2 mailia
Pilviä Harvoja pilviä 2200 ft
Lämpötilaindeksi 75 °F
Kastepiste 59 °F
Ilmankosteus 65%
Sademäärä 0.00 tuumaa
Lumensyvyys Ei saatavilla
UV 5.0 / 12
Pollen Ei saatavilla
Ilmanlaatu Ei saatavilla
Flu Activity Ei saatavilla
METAR GCXO 291330Z 29005KT 230V340 9999 FEW022 20/14 Q1021 NOSIG

More Conditions Fewer Conditions

Ilmanpaine 30.15 tuumaa
Näkyvyys 6.2 mailia
Pilviä Harvoja pilviä 2200 ft
Lämpötilaindeksi 75 °F
Kastepiste 59 °F
Ilmankosteus 65%
Sademäärä 0.00 tuumaa
Lumensyvyys Ei saatavilla
UV 5.0 / 12
Pollen Ei saatavilla
Ilmanlaatu Ei saatavilla
Flu Activity Ei saatavilla
METAR GCXO 291330Z 29005KT 230V340 9999 FEW022 20/14 Q1021 NOSIG

More Conditions Fewer Conditions

10-Day Weather Forecast

Almanac

Tähtitiede

May. 29, 2015 Nousuaika Laskuaika
Valoisa aika
Porvarillinen hämärä
Nauttinen hämärä
Astronominen hämärä
Kuu
Näkyvän valon pituus
Päivän pituus
Tomorrow will be .
, % of the Moon is Illuminated

Tämän päivän ennätykset

Country Highs Country Lows

Community

WunderPhotos

Upload Photos

1,825,271 photos uploaded!

WunderBlogs® & News

Nearby

Ilmanlaatu

  Ilmanlaatu AQ Index Pollutant
Not available.

Lumensyvyys

Station Depth Korkeus

Maanjäristysaktiivisuus

Paikkakunta Distance Mag. Time & Date
Minimum magnitude displayed is 2.5.

Coastal Water Temperatures

Paikka Lämpötila

Stations

Lähimmät sääasemat

Aseman sijainti Lämpötila Tuulen hyytävyys Kastepiste Ilmankosteus Tuuli Precip. Kork Päivitetty Tyyppi